Terminal Aerodrome Forecast
Issued by NWS

Home | Current Version | Previous Version | Text Only | Print | Product List | Glossary On
Versions: 1 2 3 4 5 6 7 8 9 10 11 12 13 14 15 16 17 18 19 20 21 22 23 24 25 26 27
092
FTUS43 KABR 192121 AAA
TAFATY
TAF AMD
KATY 192121Z 1921/2018 18010KT 1/4SM FZFG VV002
     FM200300 16008KT 1/4SM FZFG VV001
     FM201500 15009KT 3/4SM BR OVC003=

USA.gov is the U.S. government's official web portal to all federal, state and local government web resources and services.